Time;durP1;ratioP1;P1;durP2;ratioP2;P2;SDS_P1;SDS_P2;PMS_P1;PMS_P2;Temp;Humidity;BMP_temperature;BMP_pressure;BME280_temperature;BME280_humidity;BME280_pressure;Samples;Min_cycle;Max_cycle;Signal;HPM_P1;HPM_P2
2021/01/10 00:00:16;;;;;;;8.77;5.30;;;;;;;0.44;77.23;100851.69;5064315;28;20454;-73
2021/01/10 00:02:43;;;;;;;8.32;4.88;;;;;;;0.47;77.49;100846.69;5064531;28;20033;-72
2021/01/10 00:05:12;;;;;;;4.97;3.50;;;;;;;0.53;77.29;100843.53;5079915;28;20046;-72
2021/01/10 00:07:38;;;;;;;12.85;5.82;;;;;;;0.53;77.22;100843.53;5064122;28;20024;-70
2021/01/10 00:10:09;;;;;;;8.10;5.72;;;;;;;0.36;77.12;100810.50;5064360;28;20040;-71
2021/01/10 00:12:35;;;;;;;11.38;6.43;;;;;;;0.52;77.25;100839.22;5063872;28;20036;-73
2021/01/10 00:15:00;;;;;;;14.63;7.38;;;;;;;0.42;77.18;100822.63;5079679;28;20028;-70
2021/01/10 00:17:26;;;;;;;7.95;5.22;;;;;;;0.45;77.12;100833.84;5079429;28;20017;-70
2021/01/10 00:19:51;;;;;;;6.47;4.35;;;;;;;0.56;76.67;100843.66;5063921;28;20029;-72
2021/01/10 00:22:19;;;;;;;12.02;4.60;;;;;;;0.28;76.44;100814.44;5064020;28;20060;-72
2021/01/10 00:24:46;;;;;;;6.80;4.00;;;;;;;0.32;76.54;100829.09;5064230;28;20025;-71
2021/01/10 00:27:13;;;;;;;8.90;5.25;;;;;;;0.45;76.29;100846.63;5063593;28;20254;-72
2021/01/10 00:29:45;;;;;;;7.50;4.22;;;;;;;0.47;76.62;100839.03;5063634;28;20099;-69
2021/01/10 00:32:14;;;;;;;8.27;4.85;;;;;;;0.50;76.40;100839.16;5062621;28;20021;-72
2021/01/10 00:34:41;;;;;;;9.13;5.22;;;;;;;0.48;76.23;100833.97;5063905;28;20044;-72
2021/01/10 00:37:24;;;;;;;9.57;4.95;;;;;;;0.45;76.55;100812.53;5063907;28;20025;-71
2021/01/10 00:39:51;;;;;;;6.05;4.25;;;;;;;0.43;76.51;100822.69;5063789;28;20041;-72
2021/01/10 00:42:18;;;;;;;7.63;3.55;;;;;;;0.48;76.24;100812.66;5063501;28;20021;-71
2021/01/10 00:44:48;;;;;;;4.63;3.00;;;;;;;0.20;76.44;100766.47;5063677;28;20092;-71
2021/01/10 00:47:17;;;;;;;5.13;3.20;;;;;;;0.45;76.29;100809.97;5063520;28;20032;-71
2021/01/10 00:49:45;;;;;;;3.65;2.42;;;;;;;0.33;76.04;100775.50;5079129;28;20119;-72
2021/01/10 00:52:11;;;;;;;4.60;2.33;;;;;;;0.31;75.89;100802.66;5063609;28;20077;-71
2021/01/10 00:54:36;;;;;;;4.65;2.35;;;;;;;0.14;75.92;100768.78;5063278;28;20053;-73
2021/01/10 00:57:02;;;;;;;5.28;2.13;;;;;;;0.43;76.10;100806.53;5063521;28;20053;-72
2021/01/10 00:59:27;;;;;;;5.15;2.63;;;;;;;0.28;76.03;100782.09;5063254;28;20424;-72
2021/01/10 01:01:53;;;;;;;4.07;2.80;;;;;;;0.42;75.91;100799.66;5063671;28;20017;-70
2021/01/10 01:04:19;;;;;;;3.33;2.30;;;;;;;0.47;76.04;100793.94;5063363;28;20428;-70
2021/01/10 01:06:45;;;;;;;5.07;2.80;;;;;;;0.35;75.88;100776.41;5063308;28;20454;-70
2021/01/10 01:09:10;;;;;;;4.70;2.92;;;;;;;0.45;75.92;100787.88;5063333;28;20036;-72
2021/01/10 01:11:38;;;;;;;6.13;2.90;;;;;;;0.43;76.05;100778.41;5063276;28;20048;-70
2021/01/10 01:14:05;;;;;;;5.45;2.45;;;;;;;0.54;76.06;100786.50;5063049;28;20017;-72
2021/01/10 01:16:31;;;;;;;6.53;2.75;;;;;;;0.41;75.71;100760.47;5078771;28;20017;-72
2021/01/10 01:18:57;;;;;;;4.38;2.55;;;;;;;0.42;75.75;100762.22;5063080;28;20102;-71
2021/01/10 01:21:22;;;;;;;3.85;2.45;;;;;;;0.59;75.55;100778.19;5061968;28;20272;-71
2021/01/10 01:23:48;;;;;;;8.52;3.00;;;;;;;0.68;75.21;100787.03;5078432;28;20024;-71
2021/01/10 01:26:16;;;;;;;5.00;1.67;;;;;;;0.58;75.20;100760.25;5062983;28;20124;-72
2021/01/10 01:28:43;;;;;;;3.05;2.13;;;;;;;0.69;74.80;100771.75;5062615;28;20029;-71
2021/01/10 01:31:10;;;;;;;5.25;2.50;;;;;;;0.41;74.77;100718.72;5062640;28;20517;-71
2021/01/10 01:33:35;;;;;;;2.30;1.75;;;;;;;0.62;74.58;100757.00;5061658;28;20032;-70
2021/01/10 01:36:01;;;;;;;10.07;2.63;;;;;;;0.79;74.49;100772.09;5063126;28;20024;-72
2021/01/10 01:38:27;;;;;;;4.93;3.13;;;;;;;0.59;73.99;100744.13;5063059;28;20535;-71
2021/01/10 01:41:00;;;;;;;6.18;2.67;;;;;;;0.70;74.31;100747.06;5062029;28;20036;-71
2021/01/10 01:43:26;;;;;;;4.88;2.55;;;;;;;0.74;74.06;100757.47;5063953;28;20021;-69
2021/01/10 01:45:52;;;;;;;6.00;3.15;;;;;;;0.69;73.82;100730.84;5082177;28;20082;-71
2021/01/10 01:48:18;;;;;;;5.32;2.42;;;;;;;0.77;73.87;100745.63;5066739;28;20108;-71
2021/01/10 01:50:44;;;;;;;4.82;2.60;;;;;;;0.76;74.28;100734.53;5066726;28;20028;-72
2021/01/10 01:53:09;;;;;;;3.65;2.17;;;;;;;0.92;74.27;100737.63;5066778;28;20052;-71
2021/01/10 01:55:36;;;;;;;2.47;1.85;;;;;;;0.57;74.08;100679.31;5065224;28;20021;-71
2021/01/10 01:58:05;;;;;;;4.43;2.97;;;;;;;0.80;74.21;100731.25;5048637;28;20017;-70
2021/01/10 02:00:31;;;;;;;6.20;3.42;;;;;;;0.76;74.16;100729.41;5081330;28;20184;-69
2021/01/10 02:02:56;;;;;;;4.50;2.50;;;;;;;0.78;74.37;100717.56;5065399;28;20060;-70
2021/01/10 02:05:23;;;;;;;4.95;2.33;;;;;;;0.85;74.64;100732.31;5066209;28;20017;-70
2021/01/10 02:07:58;;;;;;;6.53;2.55;;;;;;;0.93;74.62;100729.13;5066533;28;20040;-70
2021/01/10 02:10:29;;;;;;;6.85;3.72;;;;;;;0.93;74.69;100709.56;5081882;28;20025;-71
2021/01/10 02:12:59;;;;;;;3.95;2.45;;;;;;;0.95;74.57;100696.84;5065409;28;20025;-70
2021/01/10 02:15:32;;;;;;;4.32;3.30;;;;;;;1.00;74.50;100710.66;5063956;28;20063;-70
2021/01/10 02:17:59;;;;;;;4.57;2.65;;;;;;;0.98;74.49;100702.94;5066322;28;20028;-70
2021/01/10 02:20:27;;;;;;;3.30;2.03;;;;;;;1.04;74.52;100702.28;5066178;28;20090;-70
2021/01/10 02:22:59;;;;;;;4.60;2.50;;;;;;;0.91;74.52;100675.41;5064963;28;20097;-69
2021/01/10 02:25:25;;;;;;;;;;;;;;;1.03;74.47;100704.78;5082072;28;20377;-71
2021/01/10 02:27:51;;;;;;;4.75;2.63;;;;;;;0.71;74.52;100652.56;5065715;28;19913;-70
2021/01/10 02:30:19;;;;;;;4.30;2.70;;;;;;;0.97;74.63;100683.31;5065687;28;20035;-71
2021/01/10 02:32:48;;;;;;;9.57;3.30;;;;;;;0.93;74.58;100678.88;5081476;28;20036;-70
2021/01/10 02:35:15;;;;;;;6.82;3.10;;;;;;;0.96;74.84;100678.13;5064608;28;20028;-70
2021/01/10 02:37:48;;;;;;;4.97;3.03;;;;;;;0.89;74.96;100659.16;5066033;28;20017;-70
2021/01/10 02:40:31;;;;;;;7.35;3.30;;;;;;;1.03;75.16;100680.09;5066026;28;20354;-69
2021/01/10 02:43:06;;;;;;;8.60;3.28;;;;;;;1.06;74.91;100681.88;5065841;28;20060;-69
2021/01/10 02:45:33;;;;;;;4.30;3.05;;;;;;;1.07;75.17;100675.97;5081258;28;20029;-69
2021/01/10 02:47:59;;;;;;;4.70;2.72;;;;;;;1.10;75.39;100679.47;5066129;28;20094;-69
2021/01/10 02:50:24;;;;;;;4.13;1.92;;;;;;;1.03;74.93;100658.75;5080951;28;20029;-68
2021/01/10 02:52:50;;;;;;;5.63;3.67;;;;;;;1.12;74.98;100664.19;5064085;28;20044;-68
2021/01/10 02:55:17;;;;;;;4.72;3.22;;;;;;;1.18;74.78;100661.84;5065310;28;20052;-69
2021/01/10 02:57:59;;;;;;;6.10;2.72;;;;;;;1.18;75.11;100650.75;5065425;28;20162;-68
2021/01/10 03:00:26;;;;;;;;;;;;;;;1.27;74.75;100665.53;5065723;28;20025;-69
2021/01/10 03:02:53;;;;;;;6.45;3.03;;;;;;;1.15;74.87;100641.28;5065483;28;19931;-68
2021/01/10 03:05:20;;;;;;;5.07;2.60;;;;;;;1.22;75.17;100645.78;5065621;28;20028;-69
2021/01/10 03:07:46;;;;;;;8.90;3.55;;;;;;;1.22;75.11;100650.03;5065158;28;20087;-69
2021/01/10 03:10:12;;;;;;;3.47;2.05;;;;;;;1.17;75.42;100629.41;5065180;28;20095;-69
2021/01/10 03:12:38;;;;;;;9.23;3.20;;;;;;;1.28;74.94;100639.16;5080074;28;20021;-68
2021/01/10 03:15:06;;;;;;;8.02;2.78;;;;;;;1.21;75.13;100636.38;5065518;28;20028;-68
2021/01/10 03:17:40;;;;;;;7.45;3.80;;;;;;;1.29;75.27;100623.84;5047385;28;20044;-70
2021/01/10 03:20:08;;;;;;;5.53;2.80;;;;;;;1.26;75.27;100638.22;5080599;28;20025;-68
2021/01/10 03:22:34;;;;;;;4.00;2.60;;;;;;;1.25;75.42;100626.25;5065401;28;20029;-69
2021/01/10 03:25:00;;;;;;;6.25;3.78;;;;;;;1.22;75.68;100615.09;5080999;28;20058;-69
2021/01/10 03:27:25;;;;;;;6.65;2.05;;;;;;;1.27;75.86;100622.03;5065375;28;20024;-69
2021/01/10 03:29:51;;;;;;;9.98;3.30;;;;;;;1.27;75.49;100614.38;5065187;28;20605;-70
2021/01/10 03:32:17;;;;;;;7.68;2.83;;;;;;;1.29;75.48;100615.31;5065517;28;20450;-68
2021/01/10 03:34:42;;;;;;;12.57;3.53;;;;;;;1.21;75.38;100592.91;5065234;28;20440;-71
2021/01/10 03:37:08;;;;;;;8.07;3.55;;;;;;;1.32;75.47;100606.06;5080330;28;20485;-70
2021/01/10 03:39:34;;;;;;;6.78;3.72;;;;;;;1.39;75.78;100608.81;5084021;28;20008;-69
2021/01/10 03:41:59;;;;;;;9.80;3.67;;;;;;;1.31;75.63;100590.66;5065164;28;20025;-69
2021/01/10 03:44:25;;;;;;;11.30;3.67;;;;;;;1.40;75.77;100602.84;5064432;28;20523;-69
2021/01/10 03:46:51;;;;;;;2.47;1.67;;;;;;;1.42;75.79;100601.22;5080116;28;20032;-68
2021/01/10 03:49:17;;;;;;;6.93;2.95;;;;;;;1.38;75.99;100594.25;5063324;28;20527;-69
2021/01/10 03:51:42;;;;;;;5.63;3.03;;;;;;;1.40;75.96;100596.06;5063483;28;20032;-69
2021/01/10 03:54:08;;;;;;;13.25;4.60;;;;;;;1.32;76.00;100574.47;5065267;28;20072;-69
2021/01/10 03:56:33;;;;;;;8.30;3.95;;;;;;;1.38;76.29;100578.91;5063318;28;20031;-69
2021/01/10 03:58:59;;;;;;;7.32;3.13;;;;;;;1.48;76.14;100569.03;5064255;28;20021;-69
2021/01/10 04:01:24;;;;;;;8.85;4.35;;;;;;;1.47;76.11;100557.03;5079611;28;20027;-69
2021/01/10 04:03:50;;;;;;;10.02;3.97;;;;;;;1.36;76.28;100551.59;5064413;28;20521;-69
2021/01/10 04:06:15;;;;;;;4.75;2.63;;;;;;;1.40;76.57;100550.00;5063964;28;20047;-69
2021/01/10 04:08:40;;;;;;;8.60;3.40;;;;;;;1.30;77.05;100535.16;5062737;28;20706;-69
2021/01/10 04:11:06;;;;;;;9.18;4.60;;;;;;;1.44;77.14;100546.72;5079558;28;20017;-68
2021/01/10 04:13:31;;;;;;;10.52;3.90;;;;;;;1.50;77.15;100527.25;5079226;28;20032;-69
2021/01/10 04:15:56;;;;;;;11.52;4.28;;;;;;;1.39;77.67;100520.09;5064043;28;20059;-68
2021/01/10 04:18:22;;;;;;;10.30;2.67;;;;;;;1.45;77.56;100514.34;5063987;28;20037;-67
2021/01/10 04:20:47;;;;;;;6.15;3.17;;;;;;;1.37;77.83;100498.75;5063958;28;20107;-68
2021/01/10 04:23:12;;;;;;;8.98;4.55;;;;;;;1.46;78.04;100521.16;5064020;28;20025;-68
2021/01/10 04:25:38;;;;;;;10.57;4.40;;;;;;;1.50;78.00;100517.03;5063981;28;20061;-68
2021/01/10 04:28:04;;;;;;;5.90;3.33;;;;;;;1.46;78.07;100501.59;5063473;28;20059;-68
2021/01/10 04:30:29;;;;;;;11.65;4.18;;;;;;;1.47;78.11;100502.47;5063785;28;20025;-69
2021/01/10 04:32:54;;;;;;;7.25;3.17;;;;;;;1.43;78.18;100496.38;5063813;28;20052;-69
2021/01/10 04:35:20;;;;;;;5.78;3.08;;;;;;;1.51;78.39;100503.41;5063651;28;20029;-69
2021/01/10 04:37:45;;;;;;;7.60;4.07;;;;;;;1.50;78.44;100488.88;5063765;28;20461;-70
2021/01/10 04:40:11;;;;;;;13.95;4.65;;;;;;;1.52;78.12;100484.69;5063563;28;20043;-69
2021/01/10 04:42:37;;;;;;;9.60;4.90;;;;;;;1.53;78.48;100483.84;5063271;28;20028;-69
2021/01/10 04:45:03;;;;;;;12.60;4.43;;;;;;;1.48;78.34;100469.25;5062024;28;20082;-69
2021/01/10 04:47:28;;;;;;;8.07;3.60;;;;;;;1.47;78.65;100482.84;5063348;28;20025;-69
2021/01/10 04:49:54;;;;;;;13.88;3.53;;;;;;;1.50;78.50;100466.72;5063475;28;20175;-69
2021/01/10 04:52:21;;;;;;;21.95;3.92;;;;;;;1.52;78.70;100469.34;5063300;28;20016;-70
2021/01/10 04:54:46;;;;;;;11.60;4.18;;;;;;;1.51;78.82;100457.34;5061960;28;20041;-69
2021/01/10 04:57:13;;;;;;;9.38;3.17;;;;;;;1.53;78.79;100445.47;5063302;28;20021;-69
2021/01/10 04:59:43;;;;;;;10.45;3.80;;;;;;;1.57;78.93;100453.28;5063051;28;20040;-68
2021/01/10 05:02:09;;;;;;;5.85;2.28;;;;;;;1.52;79.01;100436.91;5063514;28;20457;-67
2021/01/10 05:04:35;;;;;;;7.00;3.17;;;;;;;1.54;79.08;100454.88;5063127;28;20036;-68
2021/01/10 05:07:01;;;;;;;6.65;3.33;;;;;;;1.48;79.46;100447.91;5063032;28;20024;-69
2021/01/10 05:09:27;;;;;;;4.55;2.55;;;;;;;1.46;79.49;100437.63;5078078;28;20051;-69
2021/01/10 05:11:53;;;;;;;9.77;3.97;;;;;;;1.50;79.81;100441.16;5063070;28;20025;-69
2021/01/10 05:14:19;;;;;;;10.95;4.13;;;;;;;1.51;79.80;100422.41;5078131;28;20021;-68
2021/01/10 05:16:44;;;;;;;9.43;3.50;;;;;;;1.41;79.95;100405.91;5062998;28;20070;-69
2021/01/10 05:19:10;;;;;;;17.55;3.00;;;;;;;1.50;79.97;100414.69;5064738;28;20024;-70
2021/01/10 05:21:40;;;;;;;12.35;4.60;;;;;;;1.44;80.40;100411.09;5067062;28;20446;-70
2021/01/10 05:24:05;;;;;;;11.35;4.80;;;;;;;1.33;80.78;100407.38;5067101;28;20259;-69
2021/01/10 05:26:33;;;;;;;15.90;3.88;;;;;;;1.26;81.22;100403.78;5066832;28;20267;-68
2021/01/10 05:29:04;;;;;;;10.70;3.92;;;;;;;1.16;81.57;100397.53;5066542;28;20025;-71
2021/01/10 05:31:34;;;;;;;11.87;4.67;;;;;;;1.06;81.94;100400.59;5066956;28;20025;-73
2021/01/10 05:34:00;;;;;;;9.40;3.50;;;;;;;0.93;82.45;100397.66;5066959;28;20310;-73
2021/01/10 05:36:36;;;;;;;12.15;3.10;;;;;;;0.85;82.91;100396.56;5066793;28;20444;-73
2021/01/10 05:39:25;;;;;;;10.25;3.95;;;;;;;0.81;83.41;100379.41;5066479;28;20025;-73
2021/01/10 05:42:01;;;;;;;12.18;4.07;;;;;;;0.63;84.14;100374.56;5065792;28;20021;-71
2021/01/10 05:44:29;;;;;;;15.77;5.40;;;;;;;0.55;84.75;100366.66;5066022;28;20029;-71
2021/01/10 05:47:09;;;;;;;4.63;1.98;;;;;;;0.51;85.29;100386.16;5066529;28;20025;-74
2021/01/10 05:49:43;;;;;;;14.82;4.47;;;;;;;0.43;85.55;100374.81;5081630;28;20093;-75
2021/01/10 05:52:10;;;;;;;7.88;4.47;;;;;;;0.47;85.47;100381.75;5066471;28;20036;-76
2021/01/10 05:54:44;;;;;;;10.65;2.55;;;;;;;0.40;85.96;100367.91;5064681;28;20053;-76
2021/01/10 05:57:17;;;;;;;15.73;4.85;;;;;;;0.30;86.31;100363.31;5066720;28;20116;-76
2021/01/10 05:59:45;;;;;;;13.25;4.45;;;;;;;0.34;86.08;100360.03;5066083;28;20052;-74
2021/01/10 06:02:10;;;;;;;7.70;2.88;;;;;;;0.28;86.40;100342.84;5066710;28;20448;-72
2021/01/10 06:04:36;;;;;;;16.13;5.45;;;;;;;0.32;86.40;100349.78;5066372;28;20050;-73
2021/01/10 06:07:02;;;;;;;16.55;4.85;;;;;;;0.28;86.65;100352.19;5066593;28;20032;-72
2021/01/10 06:09:27;;;;;;;11.63;3.88;;;;;;;0.21;86.97;100335.78;5066122;28;20087;-73
2021/01/10 06:11:53;;;;;;;14.77;3.78;;;;;;;0.22;87.25;100338.38;5066258;28;20021;-74
2021/01/10 06:14:20;;;;;;;12.57;4.28;;;;;;;0.21;87.47;100340.88;5065983;28;20024;-74
2021/01/10 06:16:53;;;;;;;9.75;3.92;;;;;;;0.21;87.54;100334.09;5066188;28;20025;-75
2021/01/10 06:19:25;;;;;;;10.48;3.35;;;;;;;0.23;87.81;100329.94;5065935;28;20084;-73
2021/01/10 06:21:51;;;;;;;3.97;1.80;;;;;;;0.23;88.07;100331.59;5066205;28;20048;-75
2021/01/10 06:24:17;;;;;;;6.35;2.70;;;;;;;0.29;88.28;100333.50;5066087;28;20045;-74
2021/01/10 06:26:48;;;;;;;4.68;2.63;;;;;;;0.26;88.67;100320.63;5066152;28;20036;-75
2021/01/10 06:29:19;;;;;;;15.03;4.33;;;;;;;0.33;88.74;100331.09;5065052;28;20406;-75
2021/01/10 06:31:49;;;;;;;15.27;4.32;;;;;;;0.41;88.58;100327.91;5065973;28;20029;-75
2021/01/10 06:34:19;;;;;;;8.55;3.47;;;;;;;0.37;88.57;100324.38;5066013;28;20017;-75
2021/01/10 06:36:46;;;;;;;14.73;4.40;;;;;;;0.45;89.10;100332.28;5065819;28;20040;-75
2021/01/10 06:39:14;;;;;;;5.57;2.78;;;;;;;0.47;89.33;100339.19;5065772;28;20114;-75
2021/01/10 06:42:08;;;;;;;15.13;4.75;;;;;;;0.52;89.62;100335.91;5065458;28;20017;-74
2021/01/10 06:44:36;;;;;;;16.08;4.78;;;;;;;0.56;89.64;100333.50;5063739;28;20508;-74
2021/01/10 06:47:02;;;;;;;7.03;3.28;;;;;;;0.62;89.70;100322.63;5065647;28;20036;-74
2021/01/10 06:49:28;;;;;;;16.95;3.85;;;;;;;0.70;89.69;100331.38;5065284;28;20043;-74
2021/01/10 06:51:57;;;;;;;20.35;4.60;;;;;;;0.77;89.69;100316.25;5065598;28;20414;-74
2021/01/10 06:54:24;;;;;;;13.23;3.72;;;;;;;0.83;89.80;100309.59;5065349;28;20044;-74
2021/01/10 06:56:51;;;;;;;10.85;4.40;;;;;;;0.84;89.78;100320.72;5080728;28;20021;-76
2021/01/10 06:59:19;;;;;;;29.05;6.63;;;;;;;0.88;90.03;100312.31;5065014;28;20020;-75
2021/01/10 07:01:47;;;;;;;22.70;6.40;;;;;;;0.92;90.03;100309.03;5064000;28;20029;-75
2021/01/10 07:04:13;;;;;;;15.43;5.65;;;;;;;0.97;89.60;100320.28;5065188;28;20028;-74
2021/01/10 07:06:48;;;;;;;13.07;4.20;;;;;;;0.97;89.94;100309.16;5065010;28;20032;-74
2021/01/10 07:09:16;;;;;;;10.07;3.83;;;;;;;1.08;89.75;100312.03;5065089;28;20017;-73
2021/01/10 07:11:42;;;;;;;25.63;6.88;;;;;;;1.07;90.04;100297.53;5065281;28;20024;-73
2021/01/10 07:14:13;;;;;;;10.65;4.05;;;;;;;1.11;89.95;100300.22;5064979;28;20028;-74
2021/01/10 07:16:45;;;;;;;18.95;5.55;;;;;;;1.17;90.04;100296.06;5065430;28;20245;-76
2021/01/10 07:19:11;;;;;;;;;;;;;;;1.20;90.12;100284.25;5081001;28;20037;-78
2021/01/10 07:21:49;;;;;;;7.20;3.35;;;;;;;1.22;90.05;100292.84;5063745;28;19939;-78
2021/01/10 07:24:20;;;;;;;16.63;3.92;;;;;;;1.24;90.02;100305.66;5065205;28;20196;-78
2021/01/10 07:26:47;;;;;;;15.02;4.25;;;;;;;1.26;90.11;100305.72;5065065;28;20036;-78
2021/01/10 07:29:33;;;;;;;12.95;4.95;;;;;;;1.33;89.87;100305.03;5064336;28;20064;-80
2021/01/10 07:32:13;;;;;;;13.82;3.70;;;;;;;1.32;89.83;100299.09;5064961;28;20025;-76
2021/01/10 07:34:44;;;;;;;20.88;5.68;;;;;;;1.31;89.80;100297.31;5063657;28;20013;-76
2021/01/10 07:37:26;;;;;;;21.00;4.82;;;;;;;1.29;89.85;100275.09;5080151;28;20020;-74
2021/01/10 07:39:53;;;;;;;10.63;2.65;;;;;;;1.29;89.84;100272.53;5063549;28;20048;-73
2021/01/10 07:42:21;;;;;;;4.93;3.25;;;;;;;1.32;89.62;100267.50;5079795;28;20017;-74
2021/01/10 07:44:57;;;;;;;15.82;5.57;;;;;;;1.31;89.70;100268.34;5064476;28;20035;-76
2021/01/10 07:47:32;;;;;;;10.23;3.97;;;;;;;1.31;89.74;100268.34;5064565;28;20035;-74
2021/01/10 07:49:59;;;;;;;11.30;4.22;;;;;;;1.32;89.77;100276.06;5080100;28;20052;-76
2021/01/10 07:52:45;;;;;;;14.93;5.85;;;;;;;1.32;89.64;100272.63;5064942;28;20044;-76
2021/01/10 07:55:20;;;;;;;15.15;4.43;;;;;;;1.32;89.59;100272.63;5066732;28;20109;-78
2021/01/10 07:57:50;;;;;;;23.83;7.57;;;;;;;1.31;89.56;100265.78;5064483;28;20469;-76
2021/01/10 08:00:19;;;;;;;13.63;4.78;;;;;;;1.34;89.60;100264.16;5064333;28;20458;-77
2021/01/10 08:03:00;;;;;;;10.88;4.25;;;;;;;1.36;89.64;100265.06;5064522;28;20025;-75
2021/01/10 08:05:31;;;;;;;20.73;7.10;;;;;;;1.39;89.74;100278.78;5079879;28;20063;-78
2021/01/10 08:08:37;;;;;;;14.48;4.97;;;;;;;1.39;89.59;100266.84;5064418;28;20863;-75
2021/01/10 08:11:03;;;;;;;13.55;4.78;;;;;;;1.38;89.59;100270.22;5058326;28;20045;-73
2021/01/10 08:13:37;;;;;;;20.95;5.97;;;;;;;1.38;89.73;100289.81;5063824;28;20029;-75
2021/01/10 08:16:34;;;;;;;12.85;5.10;;;;;;;1.43;89.56;100288.25;5064319;28;20052;-74
2021/01/10 08:19:03;;;;;;;24.92;6.45;;;;;;;1.34;89.56;100284.63;5063886;28;20096;-74
2021/01/10 08:21:28;;;;;;;27.63;5.30;;;;;;;1.39;89.63;100302.66;5064208;28;20050;-72
2021/01/10 08:23:54;;;;;;;22.40;6.22;;;;;;;1.46;89.51;100302.00;5064047;28;20095;-72
2021/01/10 08:26:20;;;;;;;16.95;4.95;;;;;;;1.43;89.48;100291.69;5063940;28;20032;-73
2021/01/10 08:28:47;;;;;;;12.45;3.97;;;;;;;1.47;89.53;100303.72;5078829;28;20059;-73
2021/01/10 08:31:15;;;;;;;11.20;5.00;;;;;;;1.43;89.59;100294.25;5063760;28;20044;-72
2021/01/10 08:33:42;;;;;;;15.90;4.50;;;;;;;1.45;89.26;100300.25;5063979;28;20063;-71
2021/01/10 08:36:16;;;;;;;18.55;4.18;;;;;;;1.46;89.55;100301.13;5063938;28;20049;-71
2021/01/10 08:38:45;;;;;;;12.38;3.83;;;;;;;1.48;89.72;100300.38;5063919;28;20021;-72
2021/01/10 08:41:11;;;;;;;6.57;2.97;;;;;;;1.51;89.56;100291.91;5063705;28;20032;-71
2021/01/10 08:43:51;;;;;;;15.60;4.68;;;;;;;1.52;89.58;100296.19;5063431;28;20033;-71
2021/01/10 08:46:17;;;;;;;20.17;4.43;;;;;;;1.54;89.63;100303.91;5063789;28;20462;-72
2021/01/10 08:48:43;;;;;;;18.20;4.35;;;;;;;1.54;89.57;100294.53;5063746;28;20063;-71
2021/01/10 08:51:10;;;;;;;21.40;3.72;;;;;;;1.60;89.45;100293.81;5063635;28;20374;-72
2021/01/10 08:53:40;;;;;;;13.15;3.63;;;;;;;1.61;89.48;100301.53;5063150;28;20044;-72
2021/01/10 08:56:13;;;;;;;15.18;3.47;;;;;;;1.61;89.38;100304.09;5063518;28;20013;-72
2021/01/10 08:58:40;;;;;;;20.20;5.80;;;;;;;1.67;89.44;100315.34;5063210;28;20346;-73
2021/01/10 09:01:07;;;;;;;8.98;2.63;;;;;;;1.67;89.53;100315.34;5063505;28;20084;-73
2021/01/10 09:03:33;;;;;;;13.52;4.15;;;;;;;1.67;89.29;100308.53;5063765;28;20036;-75
2021/01/10 09:05:58;;;;;;;12.57;3.28;;;;;;;1.65;89.18;100302.50;5062091;28;20079;-73
2021/01/10 09:08:37;;;;;;;9.38;2.45;;;;;;;1.68;89.24;100302.56;5063651;28;20040;-73
2021/01/10 09:11:16;;;;;;;23.80;3.55;;;;;;;1.65;89.31;100315.28;5063129;28;20111;-73
2021/01/10 09:13:46;;;;;;;10.93;3.50;;;;;;;1.60;89.10;100310.06;5062789;28;20021;-72
2021/01/10 09:16:13;;;;;;;19.48;3.50;;;;;;;1.61;89.16;100305.81;5063375;28;20020;-74
2021/01/10 09:18:40;;;;;;;24.27;3.90;;;;;;;1.61;89.31;100313.50;5063274;28;20031;-70
2021/01/10 09:21:13;;;;;;;17.20;3.85;;;;;;;1.66;89.23;100329.81;5061606;28;20440;-71
2021/01/10 09:23:46;;;;;;;17.77;3.75;;;;;;;1.75;89.28;100321.53;5063457;28;20048;-72
2021/01/10 09:26:26;;;;;;;10.38;2.35;;;;;;;1.75;89.08;100325.78;5063038;28;20020;-76
2021/01/10 09:28:52;;;;;;;13.65;3.67;;;;;;;1.77;89.35;100327.56;5063064;28;20241;-73
2021/01/10 09:31:17;;;;;;;24.33;4.03;;;;;;;1.80;89.27;100334.44;5062539;28;20691;-74
2021/01/10 09:33:43;;;;;;;9.82;2.85;;;;;;;1.87;89.04;100327.81;5062818;28;20040;-73
2021/01/10 09:36:16;;;;;;;16.02;3.58;;;;;;;1.82;89.00;100333.66;5078040;28;20017;-69
2021/01/10 09:38:54;;;;;;;17.00;4.63;;;;;;;1.83;88.91;100337.09;5063439;28;20025;-73
2021/01/10 09:41:19;;;;;;;13.13;2.47;;;;;;;1.84;88.98;100326.00;5062849;28;20033;-70
2021/01/10 09:43:52;;;;;;;20.27;3.92;;;;;;;1.87;88.89;100335.47;5062619;28;20032;-70
2021/01/10 09:46:23;;;;;;;21.05;5.05;;;;;;;1.91;88.93;100330.47;5061690;28;20017;-69
2021/01/10 09:48:51;;;;;;;18.60;3.72;;;;;;;1.89;88.76;100327.00;5078621;28;20028;-71
2021/01/10 09:51:17;;;;;;;19.23;5.18;;;;;;;1.92;88.83;100337.31;5062636;28;20036;-70
2021/01/10 09:53:46;;;;;;;23.80;4.93;;;;;;;1.92;88.95;100337.31;5062330;28;20029;-70
2021/01/10 09:56:32;;;;;;;24.50;4.20;;;;;;;1.95;88.95;100339.13;5062790;28;20081;-71
2021/01/10 09:58:58;;;;;;;8.20;3.30;;;;;;;1.98;89.00;100337.47;5050222;28;20040;-70
2021/01/10 10:01:33;;;;;;;17.27;3.53;;;;;;;1.95;88.85;100336.56;5062626;28;20419;-69
2021/01/10 10:03:58;;;;;;;19.85;4.20;;;;;;;2.00;88.51;100344.34;5079119;28;20021;-71
2021/01/10 10:06:24;;;;;;;20.52;5.90;;;;;;;1.96;88.53;100333.16;5066371;28;20048;-71
2021/01/10 10:08:53;;;;;;;14.23;3.97;;;;;;;1.98;88.48;100340.03;5066549;28;20039;-71
2021/01/10 10:11:19;;;;;;;11.68;3.53;;;;;;;2.01;88.53;100340.97;5066193;28;20088;-69
2021/01/10 10:13:45;;;;;;;15.60;2.92;;;;;;;1.98;88.46;100340.03;5066114;28;20032;-71
2021/01/10 10:16:16;;;;;;;12.27;2.90;;;;;;;1.98;88.35;100344.31;5082086;28;20106;-71
2021/01/10 10:18:42;;;;;;;22.92;3.50;;;;;;;1.93;88.36;100344.16;5082039;28;20017;-72
2021/01/10 10:21:08;;;;;;;17.00;3.03;;;;;;;1.95;88.36;100345.09;5066265;28;20620;-75
2021/01/10 10:23:33;;;;;;;19.52;2.85;;;;;;;1.99;88.17;100353.72;5066575;28;20075;-73
2021/01/10 10:25:58;;;;;;;11.32;2.25;;;;;;;2.01;87.96;100351.19;5066495;28;20502;-73
2021/01/10 10:28:24;;;;;;;9.98;2.60;;;;;;;1.98;88.22;100347.72;5064698;28;20398;-72
2021/01/10 10:30:49;;;;;;;16.50;3.25;;;;;;;2.02;88.04;100346.13;5066347;28;20024;-71
2021/01/10 10:33:16;;;;;;;12.00;2.50;;;;;;;1.96;87.81;100345.97;5066080;28;20021;-70
2021/01/10 10:35:42;;;;;;;17.02;2.63;;;;;;;2.03;87.67;100342.72;5081411;28;20025;-78
2021/01/10 10:38:09;;;;;;;17.27;3.22;;;;;;;1.98;87.70;100347.72;5066052;28;20017;-73
2021/01/10 10:40:34;;;;;;;13.55;2.55;;;;;;;2.05;87.82;100347.88;5066243;28;20025;-73
2021/01/10 10:43:00;;;;;;;26.88;3.75;;;;;;;2.02;87.87;100340.13;5081072;28;20385;-74
2021/01/10 10:45:25;;;;;;;17.92;2.28;;;;;;;2.02;87.82;100342.69;5065734;28;20119;-74
2021/01/10 10:47:51;;;;;;;15.23;3.30;;;;;;;2.05;87.73;100337.63;5065786;28;20025;-73
2021/01/10 10:50:17;;;;;;;26.08;3.38;;;;;;;2.07;87.94;100347.13;5065971;28;20025;-80
2021/01/10 10:52:42;;;;;;;16.23;2.13;;;;;;;2.06;87.87;100344.50;5066253;28;20059;-78
2021/01/10 10:55:09;;;;;;;20.88;2.85;;;;;;;2.09;87.89;100344.59;5064496;28;20037;-79
2021/01/10 10:57:35;;;;;;;12.55;1.98;;;;;;;2.02;88.00;100343.56;5064345;28;20074;-79
2021/01/10 11:00:06;;;;;;;11.75;2.60;;;;;;;2.02;87.59;100348.69;5065544;28;20025;-80
2021/01/10 11:02:31;;;;;;;12.63;2.80;;;;;;;2.02;87.66;100356.38;5065814;28;20033;-83
2021/01/10 11:04:57;;;;;;;8.38;2.25;;;;;;;1.94;87.41;100343.38;5066027;28;20149;-80
2021/01/10 11:07:22;;;;;;;8.40;2.63;;;;;;;1.99;87.54;100358.84;5065524;28;20033;-77
2021/01/10 11:09:47;;;;;;;23.30;2.85;;;;;;;1.98;87.38;100357.97;5065934;28;20021;-78
2021/01/10 11:12:14;;;;;;;15.35;2.25;;;;;;;1.92;87.06;100362.94;5065903;28;20024;-79
2021/01/10 11:14:40;;;;;;;11.73;1.88;;;;;;;1.81;86.73;100348.97;5064893;28;20234;-75
2021/01/10 11:17:10;;;;;;;18.15;2.65;;;;;;;1.78;86.52;100352.31;5064914;28;20021;-75
2021/01/10 11:19:37;;;;;;;11.45;2.22;;;;;;;1.72;86.51;100349.59;5065370;28;20084;-76
2021/01/10 11:22:06;;;;;;;21.33;2.53;;;;;;;1.68;86.51;100348.66;5063984;28;20063;-78
2021/01/10 11:24:32;;;;;;;22.23;2.90;;;;;;;1.68;86.59;100348.66;5065361;28;20025;-77
2021/01/10 11:26:58;;;;;;;14.23;2.50;;;;;;;1.76;86.69;100348.84;5065338;28;20021;-79
2021/01/10 11:29:24;;;;;;;18.10;2.05;;;;;;;1.76;86.77;100345.44;5065010;28;20025;-77
2021/01/10 11:31:50;;;;;;;12.38;1.63;;;;;;;1.84;86.85;100349.06;5065681;28;20036;-75
2021/01/10 11:34:16;;;;;;;12.20;2.08;;;;;;;1.86;86.49;100360.22;5080617;28;20021;-72